LROD-ORADEA

Valid from:2019-03-23 02:00:00

METAR LROD 230200Z AUTO 06004KT 9999 NCD 06/03 Q1027=

Valid from:2019-03-22 17:00:00

TAF LROD 221700Z 2218/2303 02008KT CAVOK TEMPO 2300/2303 3000 BR=